Time;durP1;ratioP1;P1;durP2;ratioP2;P2;SDS_P1;SDS_P2;PMS_P1;PMS_P2;Temp;Humidity;BMP_temperature;BMP_pressure;BME280_temperature;BME280_humidity;BME280_pressure;Samples;Min_cycle;Max_cycle;Signal;HPM_P1;HPM_P2
2022/04/24 00:00:46;;;;;;;27.27;10.18;;;12.40;99.90;;;;;;4986383;28;20556;-56
2022/04/24 00:03:13;;;;;;;21.08;7.93;;;12.40;99.90;;;;;;4986701;28;20078;-57
2022/04/24 00:05:40;;;;;;;23.02;7.95;;;12.40;99.90;;;;;;4983872;28;20077;-56
2022/04/24 00:08:08;;;;;;;21.42;9.02;;;12.30;99.90;;;;;;4987330;28;20129;-57
2022/04/24 00:10:38;;;;;;;30.77;9.85;;;12.30;99.90;;;;;;4987695;28;20089;-57
2022/04/24 00:13:05;;;;;;;19.98;7.93;;;12.30;99.90;;;;;;4973309;28;20055;-56
2022/04/24 00:15:31;;;;;;;26.58;9.23;;;12.20;99.90;;;;;;4982069;28;20043;-57
2022/04/24 00:17:58;;;;;;;24.80;7.97;;;12.20;99.90;;;;;;4989378;28;20576;-55
2022/04/24 00:20:25;;;;;;;19.08;7.72;;;12.20;99.90;;;;;;4987707;28;20569;-56
2022/04/24 00:22:52;;;;;;;21.58;8.35;;;12.20;99.90;;;;;;4989078;28;20161;-56
2022/04/24 00:25:18;;;;;;;22.98;7.55;;;12.20;99.90;;;;;;4986406;28;20446;-57
2022/04/24 00:27:45;;;;;;;22.52;8.88;;;12.20;99.90;;;;;;4980521;28;20173;-57
2022/04/24 00:30:12;;;;;;;21.38;7.25;;;12.20;99.90;;;;;;4989354;28;20105;-56
2022/04/24 00:32:39;;;;;;;19.65;8.40;;;12.20;99.90;;;;;;4978319;28;20050;-57
2022/04/24 00:35:06;;;;;;;25.48;7.82;;;12.20;99.90;;;;;;4988955;28;20146;-57
2022/04/24 00:37:33;;;;;;;20.73;7.93;;;12.30;99.90;;;;;;4989433;28;20077;-53
2022/04/24 00:39:59;;;;;;;23.67;9.02;;;12.20;99.90;;;;;;4988939;28;20570;-57
2022/04/24 00:42:26;;;;;;;20.85;8.85;;;12.30;99.90;;;;;;4984303;28;20039;-59
2022/04/24 00:44:53;;;;;;;24.58;9.07;;;12.20;99.90;;;;;;4970787;28;20074;-58
2022/04/24 00:47:22;;;;;;;30.40;8.23;;;12.30;99.90;;;;;;4976854;28;20129;-55
2022/04/24 00:49:48;;;;;;;18.75;7.82;;;12.20;99.90;;;;;;4989828;28;20077;-56
2022/04/24 00:52:15;;;;;;;26.67;8.30;;;12.30;99.90;;;;;;4986964;28;20458;-55
2022/04/24 00:54:42;;;;;;;17.20;7.72;;;12.30;99.90;;;;;;4972579;28;20580;-56
2022/04/24 00:57:10;;;;;;;25.20;8.98;;;12.30;99.90;;;;;;4988287;28;20069;-54
2022/04/24 00:59:40;;;;;;;23.83;8.40;;;12.30;99.90;;;;;;4988858;28;20497;-55
2022/04/24 01:02:07;;;;;;;23.23;10.27;;;12.20;99.90;;;;;;4987962;28;20220;-57
2022/04/24 01:04:34;;;;;;;20.95;7.88;;;12.20;99.90;;;;;;4988365;28;20509;-57
2022/04/24 01:07:01;;;;;;;22.27;8.73;;;12.10;99.90;;;;;;4988455;28;20050;-56
2022/04/24 01:09:30;;;;;;;24.98;7.78;;;12.00;99.90;;;;;;4988854;28;20483;-56
2022/04/24 01:11:57;;;;;;;26.52;7.85;;;12.00;99.90;;;;;;4984422;28;20138;-56
2022/04/24 01:14:28;;;;;;;29.55;10.65;;;11.90;99.90;;;;;;4978103;28;20141;-56
2022/04/24 01:16:55;;;;;;;20.00;7.72;;;11.90;99.90;;;;;;4975670;28;20129;-57
2022/04/24 01:19:22;;;;;;;27.00;9.25;;;11.90;99.90;;;;;;4987522;28;20245;-54
2022/04/24 01:21:49;;;;;;;22.45;9.23;;;11.90;99.90;;;;;;4988490;28;20145;-53
2022/04/24 01:24:18;;;;;;;24.85;8.82;;;11.90;99.90;;;;;;5003672;28;20498;-54
2022/04/24 01:26:45;;;;;;;19.65;7.35;;;11.80;99.90;;;;;;4983475;28;20478;-54
2022/04/24 01:29:12;;;;;;;21.30;7.55;;;11.80;99.90;;;;;;4636235;28;10000301;-59
2022/04/24 01:31:39;;;;;;;24.58;8.80;;;11.70;99.90;;;;;;4965966;28;20090;-55
2022/04/24 01:34:06;;;;;;;20.27;8.27;;;11.70;99.90;;;;;;4987281;28;20046;-54
2022/04/24 01:36:33;;;;;;;23.67;9.52;;;11.70;99.90;;;;;;4988706;28;20671;-56
2022/04/24 01:39:00;;;;;;;24.73;8.82;;;11.60;99.90;;;;;;4988153;28;20074;-57
2022/04/24 01:41:26;;;;;;;26.30;8.60;;;11.60;99.90;;;;;;4986575;28;20065;-56
2022/04/24 01:43:53;;;;;;;22.38;8.73;;;11.60;99.90;;;;;;4983861;28;20137;-57
2022/04/24 01:46:20;;;;;;;20.90;8.05;;;11.50;99.90;;;;;;4988493;28;20137;-56
2022/04/24 01:48:47;;;;;;;26.63;8.55;;;11.50;99.90;;;;;;4988190;28;20130;-57
2022/04/24 01:51:14;;;;;;;21.48;7.50;;;11.50;99.90;;;;;;4988368;28;20082;-58
2022/04/24 01:53:42;;;;;;;27.85;7.75;;;11.40;99.90;;;;;;4988459;28;20613;-56
2022/04/24 01:56:09;;;;;;;22.02;8.82;;;11.30;99.90;;;;;;4986818;28;20437;-57
2022/04/24 01:58:36;;;;;;;21.05;8.65;;;11.30;99.90;;;;;;4987913;28;20096;-56
2022/04/24 02:01:04;;;;;;;27.90;10.88;;;11.20;99.90;;;;;;4987606;28;20078;-57
2022/04/24 02:03:30;;;;;;;27.98;10.75;;;11.10;99.90;;;;;;4987143;28;20509;-56
2022/04/24 02:05:57;;;;;;;24.73;9.32;;;11.00;99.90;;;;;;4990950;28;20601;-56
2022/04/24 02:08:25;;;;;;;28.08;10.10;;;11.00;99.90;;;;;;4990893;28;20121;-56
2022/04/24 02:10:51;;;;;;;22.40;8.48;;;10.90;99.90;;;;;;4988829;28;20152;-57
2022/04/24 02:13:18;;;;;;;30.25;11.20;;;10.90;99.90;;;;;;4973184;28;20089;-56
2022/04/24 02:15:49;;;;;;;25.50;9.02;;;10.90;99.90;;;;;;4991494;28;20456;-57
2022/04/24 02:18:16;;;;;;;21.08;8.48;;;10.80;99.90;;;;;;4991331;28;20465;-56
2022/04/24 02:20:43;;;;;;;22.45;8.55;;;10.70;99.90;;;;;;4991392;28;20137;-56
2022/04/24 02:23:10;;;;;;;35.40;9.18;;;10.70;99.90;;;;;;4991176;28;20113;-54
2022/04/24 02:25:37;;;;;;;28.20;9.18;;;10.60;99.90;;;;;;4990628;28;20596;-58
2022/04/24 02:28:04;;;;;;;20.90;7.55;;;10.60;99.90;;;;;;4991584;28;20125;-57
2022/04/24 02:30:30;;;;;;;21.80;9.45;;;10.40;99.90;;;;;;4991053;28;20129;-58
2022/04/24 02:32:58;;;;;;;21.77;8.27;;;10.40;99.90;;;;;;4989733;28;20047;-57
2022/04/24 02:35:25;;;;;;;30.80;9.05;;;10.50;99.90;;;;;;4990168;28;20137;-57
2022/04/24 02:37:52;;;;;;;21.80;9.48;;;10.50;99.90;;;;;;4990508;28;20047;-58
2022/04/24 02:40:21;;;;;;;21.70;7.68;;;10.40;99.90;;;;;;4990383;28;20077;-57
2022/04/24 02:42:52;;;;;;;24.90;9.00;;;10.40;99.90;;;;;;4990295;28;20054;-57
2022/04/24 02:45:19;;;;;;;26.50;9.43;;;10.40;99.90;;;;;;4990812;28;20129;-57
2022/04/24 02:47:46;;;;;;;21.40;8.15;;;10.30;99.90;;;;;;4991340;28;20046;-57
2022/04/24 02:50:13;;;;;;;23.17;8.48;;;10.30;99.90;;;;;;4990904;28;20082;-56
2022/04/24 02:52:47;;;;;;;24.38;8.45;;;10.30;99.90;;;;;;4990996;28;20085;-57
2022/04/24 02:55:14;;;;;;;21.52;8.55;;;10.30;99.90;;;;;;4987816;28;20130;-58
2022/04/24 02:57:42;;;;;;;30.95;8.57;;;10.40;99.90;;;;;;4990895;28;20047;-59
2022/04/24 03:00:09;;;;;;;30.77;9.18;;;10.40;99.90;;;;;;4986580;28;20053;-54
2022/04/24 03:02:43;;;;;;;25.00;10.25;;;10.30;99.90;;;;;;4989838;28;20805;-57
2022/04/24 03:05:14;;;;;;;;;;;10.30;99.90;;;;;;4989248;28;20072;-57
2022/04/24 03:07:40;;;;;;;22.95;8.30;;;10.30;99.90;;;;;;4990001;28;20029;-56
2022/04/24 03:10:10;;;;;;;29.73;10.45;;;10.20;99.90;;;;;;4989803;28;20078;-57
2022/04/24 03:12:38;;;;;;;27.30;9.60;;;10.20;99.90;;;;;;4981797;28;20050;-56
2022/04/24 03:15:05;;;;;;;22.95;8.40;;;10.10;99.90;;;;;;4990329;28;20129;-56
2022/04/24 03:17:32;;;;;;;25.70;9.15;;;10.10;99.90;;;;;;4986279;28;20133;-55
2022/04/24 03:20:03;;;;;;;23.90;8.65;;;10.20;99.90;;;;;;4971040;28;20050;-57
2022/04/24 03:22:33;;;;;;;24.33;9.10;;;10.20;99.90;;;;;;4988948;28;20081;-57
2022/04/24 03:25:00;;;;;;;27.60;10.45;;;10.10;99.90;;;;;;4990592;28;20054;-59
2022/04/24 03:27:27;;;;;;;33.03;10.07;;;10.10;99.90;;;;;;4989720;28;20082;-57
2022/04/24 03:29:54;;;;;;;31.98;10.90;;;10.10;99.90;;;;;;4989986;28;20454;-58
2022/04/24 03:32:21;;;;;;;23.23;9.15;;;10.10;99.90;;;;;;4989643;28;20085;-57
2022/04/24 03:34:50;;;;;;;29.77;10.13;;;10.10;99.90;;;;;;4990064;28;20053;-57
2022/04/24 03:37:17;;;;;;;36.80;10.48;;;10.10;99.90;;;;;;4989639;28;20050;-58
2022/04/24 03:39:44;;;;;;;23.10;8.43;;;10.10;99.90;;;;;;4988927;28;20339;-56
2022/04/24 03:42:10;;;;;;;29.00;10.40;;;10.00;99.90;;;;;;4987225;28;20402;-56
2022/04/24 03:44:37;;;;;;;21.98;9.38;;;9.90;99.90;;;;;;4989707;28;20082;-55
2022/04/24 03:47:06;;;;;;;23.67;8.80;;;9.90;99.90;;;;;;4989411;28;20053;-57
2022/04/24 03:49:33;;;;;;;32.05;10.85;;;9.90;99.90;;;;;;4988671;28;20047;-56
2022/04/24 03:52:00;;;;;;;28.77;9.90;;;9.80;99.90;;;;;;4989372;28;20077;-55
2022/04/24 03:54:27;;;;;;;28.95;9.00;;;9.80;99.90;;;;;;4989470;28;20054;-57
2022/04/24 03:56:53;;;;;;;28.35;9.63;;;9.80;99.90;;;;;;4989065;28;20081;-57
2022/04/24 03:59:21;;;;;;;27.25;9.95;;;9.80;99.90;;;;;;4988564;28;20089;-57
2022/04/24 04:01:47;;;;;;;26.55;11.25;;;9.80;99.90;;;;;;4989187;28;20085;-56
2022/04/24 04:04:15;;;;;;;25.25;9.60;;;9.80;99.90;;;;;;4985947;28;20079;-57
2022/04/24 04:06:42;;;;;;;26.00;10.00;;;9.80;99.90;;;;;;4987393;28;20088;-58
2022/04/24 04:09:10;;;;;;;21.80;9.40;;;9.70;99.90;;;;;;4988564;28;20144;-57
2022/04/24 04:11:37;;;;;;;23.35;8.55;;;9.70;99.90;;;;;;4987823;28;20547;-57
2022/04/24 04:14:04;;;;;;;25.60;9.63;;;9.60;99.90;;;;;;4989177;28;20141;-57
2022/04/24 04:16:30;;;;;;;21.58;9.27;;;9.60;99.90;;;;;;4989329;28;20053;-56
2022/04/24 04:18:57;;;;;;;26.60;10.45;;;9.70;99.90;;;;;;4988956;28;20303;-57
2022/04/24 04:21:24;;;;;;;31.40;10.13;;;9.60;99.90;;;;;;4987821;28;20074;-56
2022/04/24 04:23:51;;;;;;;27.73;10.30;;;9.60;99.90;;;;;;4988978;28;20077;-56
2022/04/24 04:26:18;;;;;;;31.10;9.90;;;9.60;99.90;;;;;;4989121;28;20429;-56
2022/04/24 04:28:45;;;;;;;26.67;10.48;;;9.60;99.90;;;;;;4985240;28;20056;-55
2022/04/24 04:31:12;;;;;;;26.63;11.18;;;9.50;99.90;;;;;;4989139;28;20142;-56
2022/04/24 04:33:40;;;;;;;27.63;10.85;;;9.50;99.90;;;;;;4986851;28;20137;-56
2022/04/24 04:36:06;;;;;;;22.73;11.02;;;9.60;99.90;;;;;;4988560;28;20058;-57
2022/04/24 04:38:33;;;;;;;25.33;12.32;;;9.60;99.90;;;;;;4988080;28;20092;-56
2022/04/24 04:41:00;;;;;;;32.85;10.85;;;9.60;99.90;;;;;;4988209;28;20120;-58
2022/04/24 04:43:27;;;;;;;28.10;12.40;;;9.50;99.90;;;;;;4987536;28;20097;-56
2022/04/24 04:45:54;;;;;;;28.45;15.02;;;9.50;99.90;;;;;;4987077;28;20060;-56
2022/04/24 04:48:21;;;;;;;24.88;10.40;;;9.50;99.90;;;;;;4988617;28;20133;-57
2022/04/24 04:50:48;;;;;;;32.05;12.23;;;9.50;99.90;;;;;;4987353;28;20158;-57
2022/04/24 04:53:15;;;;;;;27.65;11.65;;;9.50;99.90;;;;;;4989263;28;20054;-57
2022/04/24 04:55:42;;;;;;;25.33;11.07;;;9.50;99.90;;;;;;4988253;28;20081;-56
2022/04/24 04:58:09;;;;;;;39.60;12.73;;;9.50;99.90;;;;;;4988899;28;20096;-57
2022/04/24 05:00:36;;;;;;;38.40;12.77;;;9.50;99.90;;;;;;4987976;28;20589;-57
2022/04/24 05:03:02;;;;;;;23.42;11.98;;;9.50;99.90;;;;;;4988779;28;20084;-55
2022/04/24 05:05:29;;;;;;;27.80;12.00;;;9.50;99.90;;;;;;4987316;28;20501;-57
2022/04/24 05:07:56;;;;;;;31.55;11.88;;;9.50;99.90;;;;;;4988034;28;20058;-55
2022/04/24 05:10:23;;;;;;;30.45;11.57;;;9.50;99.90;;;;;;4987252;28;20050;-58
2022/04/24 05:12:50;;;;;;;31.25;11.77;;;9.50;99.90;;;;;;4972149;28;20378;-57
2022/04/24 05:15:17;;;;;;;31.27;12.15;;;9.50;99.90;;;;;;4977713;28;20520;-57
2022/04/24 05:17:44;;;;;;;30.50;12.85;;;9.50;99.90;;;;;;4988897;28;20485;-57
2022/04/24 05:20:11;;;;;;;34.15;12.95;;;9.50;99.90;;;;;;4988091;28;20046;-56
2022/04/24 05:22:38;;;;;;;25.13;13.02;;;9.50;99.90;;;;;;4981284;28;20055;-58
2022/04/24 05:25:07;;;;;;;33.75;12.70;;;9.50;99.90;;;;;;4985818;28;20133;-59
2022/04/24 05:27:33;;;;;;;31.08;12.10;;;9.60;99.90;;;;;;4988112;28;20085;-57
2022/04/24 05:30:00;;;;;;;26.70;12.55;;;9.60;99.90;;;;;;4988127;28;20077;-58
2022/04/24 05:32:27;;;;;;;25.42;12.30;;;9.60;99.90;;;;;;4988431;28;20133;-61
2022/04/24 05:34:54;;;;;;;28.25;11.98;;;9.60;99.90;;;;;;4987361;28;20133;-57
2022/04/24 05:37:20;;;;;;;27.52;12.13;;;9.60;99.90;;;;;;4988503;28;20074;-58
2022/04/24 05:39:47;;;;;;;27.92;12.18;;;9.60;99.90;;;;;;4990471;28;20520;-62
2022/04/24 05:42:14;;;;;;;23.17;10.98;;;9.60;99.90;;;;;;4982514;28;20054;-58
2022/04/24 05:44:41;;;;;;;31.15;12.77;;;9.60;99.90;;;;;;4990751;28;20133;-57
2022/04/24 05:47:08;;;;;;;42.30;12.65;;;9.50;99.90;;;;;;4989754;28;20046;-58
2022/04/24 05:49:35;;;;;;;29.42;13.77;;;9.60;99.90;;;;;;4990707;28;20357;-57
2022/04/24 05:52:01;;;;;;;27.70;12.23;;;9.60;99.90;;;;;;4990467;28;20077;-58
2022/04/24 05:54:30;;;;;;;29.48;12.88;;;9.60;99.90;;;;;;4989627;28;20054;-58
2022/04/24 05:56:56;;;;;;;33.13;12.40;;;9.70;99.90;;;;;;4988651;28;20525;-58
2022/04/24 05:59:23;;;;;;;22.92;12.50;;;9.80;99.90;;;;;;4988995;28;20062;-58
2022/04/24 06:01:50;;;;;;;28.48;12.95;;;9.90;99.90;;;;;;4987784;28;20070;-59
2022/04/24 06:04:17;;;;;;;33.72;13.25;;;9.90;99.90;;;;;;4991071;28;20042;-58
2022/04/24 06:06:44;;;;;;;35.00;14.25;;;10.00;99.90;;;;;;4990787;28;20501;-56
2022/04/24 06:09:10;;;;;;;26.23;12.57;;;10.00;99.90;;;;;;4991265;28;20047;-58
2022/04/24 06:11:41;;;;;;;36.88;12.45;;;10.00;99.90;;;;;;4990036;28;20057;-58
2022/04/24 06:14:07;;;;;;;32.97;12.77;;;10.10;99.90;;;;;;4991087;28;20391;-59
2022/04/24 06:16:36;;;;;;;30.20;11.85;;;10.20;99.90;;;;;;4990639;28;20137;-58
2022/04/24 06:19:03;;;;;;;27.85;13.32;;;10.30;99.90;;;;;;4990903;28;20052;-60
2022/04/24 06:21:29;;;;;;;27.48;11.73;;;10.40;99.90;;;;;;4990863;28;20593;-58
2022/04/24 06:23:56;;;;;;;22.45;12.57;;;10.40;99.90;;;;;;4991213;28;20457;-58
2022/04/24 06:26:23;;;;;;;19.15;10.80;;;10.50;99.90;;;;;;4990782;28;20050;-57
2022/04/24 06:28:50;;;;;;;22.95;11.30;;;10.60;99.90;;;;;;4990363;28;20394;-59
2022/04/24 06:31:17;;;;;;;27.10;12.68;;;10.60;99.90;;;;;;4990717;28;20520;-59
2022/04/24 06:33:43;;;;;;;29.45;13.10;;;10.70;99.90;;;;;;4990373;28;20105;-58
2022/04/24 06:36:10;;;;;;;25.85;11.80;;;10.80;99.90;;;;;;4990713;28;20086;-58
2022/04/24 06:38:37;;;;;;;34.30;14.18;;;10.90;99.90;;;;;;4990159;28;20133;-58
2022/04/24 06:41:04;;;;;;;28.38;13.60;;;10.90;99.90;;;;;;4989460;28;20508;-58
2022/04/24 06:43:31;;;;;;;31.08;14.65;;;10.90;99.90;;;;;;4990092;28;20154;-59
2022/04/24 06:45:57;;;;;;;28.85;11.88;;;11.00;99.90;;;;;;4990482;28;20052;-58
2022/04/24 06:48:24;;;;;;;26.05;12.82;;;11.00;99.90;;;;;;4990318;28;20049;-57
2022/04/24 06:50:51;;;;;;;27.25;13.65;;;11.00;99.90;;;;;;4989506;28;20512;-57
2022/04/24 06:53:20;;;;;;;28.02;12.60;;;11.10;99.90;;;;;;4990631;28;20082;-58
2022/04/24 06:55:48;;;;;;;28.90;11.90;;;11.20;99.90;;;;;;4988757;28;20066;-58
2022/04/24 06:58:16;;;;;;;18.10;10.60;;;11.20;99.90;;;;;;4989933;28;20442;-59
2022/04/24 07:00:44;;;;;;;29.42;12.63;;;11.20;99.90;;;;;;4989342;28;20046;-58
2022/04/24 07:03:31;;;;;;;27.17;12.45;;;11.20;99.90;;;;;;4986850;28;20038;-57
2022/04/24 07:05:57;;;;;;;29.38;12.30;;;11.30;99.90;;;;;;4990066;28;20054;-59
2022/04/24 07:08:24;;;;;;;31.75;12.82;;;11.40;99.90;;;;;;4989631;28;20094;-58
2022/04/24 07:10:54;;;;;;;21.98;12.15;;;11.40;99.90;;;;;;4981304;28;20046;-59
2022/04/24 07:13:22;;;;;;;27.42;11.02;;;11.50;99.90;;;;;;4971977;28;20061;-59
2022/04/24 07:15:48;;;;;;;18.38;11.20;;;11.60;99.90;;;;;;4988153;28;20092;-58
2022/04/24 07:18:15;;;;;;;23.15;11.43;;;11.60;99.90;;;;;;4989099;28;20060;-57
2022/04/24 07:20:42;;;;;;;23.70;10.43;;;11.70;99.90;;;;;;4987869;28;20089;-58
2022/04/24 07:23:11;;;;;;;21.67;10.25;;;11.70;99.90;;;;;;4990262;28;20501;-59
2022/04/24 07:25:40;;;;;;;27.75;11.65;;;11.70;99.90;;;;;;4989608;28;20121;-57
2022/04/24 07:28:08;;;;;;;23.60;10.35;;;11.70;99.90;;;;;;4989177;28;20076;-60
2022/04/24 07:30:35;;;;;;;22.42;9.95;;;11.80;99.90;;;;;;4642078;28;10000506;-59
2022/04/24 07:33:01;;;;;;;19.75;10.70;;;11.80;99.90;;;;;;4987093;28;20090;-58
2022/04/24 07:35:33;;;;;;;29.05;10.50;;;11.90;99.90;;;;;;4986563;28;20065;-57
2022/04/24 07:38:00;;;;;;;22.75;9.43;;;11.90;99.90;;;;;;4986652;28;20046;-59
2022/04/24 07:40:28;;;;;;;21.00;10.13;;;11.90;99.90;;;;;;4985744;28;20064;-58
2022/04/24 07:42:58;;;;;;;25.95;10.43;;;12.00;99.90;;;;;;4969997;28;20094;-59
2022/04/24 07:45:35;;;;;;;18.45;10.65;;;12.00;99.90;;;;;;4977619;28;20082;-57
2022/04/24 07:48:03;;;;;;;30.15;10.50;;;12.10;99.90;;;;;;4986617;28;20544;-57
2022/04/24 07:50:32;;;;;;;28.55;10.07;;;12.20;99.90;;;;;;4982875;28;20069;-60
2022/04/24 07:53:00;;;;;;;21.85;10.10;;;12.30;99.90;;;;;;4986180;28;20137;-59
2022/04/24 07:55:27;;;;;;;28.05;11.38;;;12.30;99.90;;;;;;4985782;28;20092;-59
2022/04/24 07:57:54;;;;;;;27.85;10.90;;;12.30;99.90;;;;;;4975139;28;20059;-60
2022/04/24 08:00:22;;;;;;;21.45;10.23;;;12.40;99.90;;;;;;4973751;28;20101;-63
2022/04/24 08:02:50;;;;;;;27.13;10.25;;;12.50;99.90;;;;;;4984453;28;20054;-59
2022/04/24 08:05:36;;;;;;;25.85;10.75;;;12.50;99.90;;;;;;4986075;28;20105;-60
2022/04/24 08:08:08;;;;;;;25.35;10.38;;;12.50;99.90;;;;;;4985053;28;20221;-63
2022/04/24 08:10:37;;;;;;;30.63;10.90;;;12.60;99.90;;;;;;4979719;28;20410;-59
2022/04/24 08:13:05;;;;;;;18.73;9.23;;;12.60;99.90;;;;;;4976236;28;20142;-60
2022/04/24 08:15:38;;;;;;;21.13;9.63;;;12.60;99.90;;;;;;4986194;28;20877;-59
2022/04/24 08:18:06;;;;;;;21.65;9.57;;;12.70;99.90;;;;;;4985670;28;20058;-59
2022/04/24 08:20:34;;;;;;;24.88;9.60;;;12.70;99.90;;;;;;4983205;28;20137;-59
2022/04/24 08:23:04;;;;;;;29.95;10.30;;;12.80;99.90;;;;;;4983555;28;20058;-59
2022/04/24 08:25:35;;;;;;;25.08;9.90;;;12.80;99.90;;;;;;4983938;28;20560;-59
2022/04/24 08:28:08;;;;;;;18.45;8.85;;;12.90;99.90;;;;;;4983895;28;20250;-60
2022/04/24 08:30:36;;;;;;;14.13;9.10;;;13.00;99.90;;;;;;4983974;28;20133;-60
2022/04/24 08:33:03;;;;;;;25.67;10.27;;;13.00;99.90;;;;;;4985530;28;20058;-60
2022/04/24 08:35:30;;;;;;;20.48;9.05;;;13.10;99.90;;;;;;4984486;28;20144;-59
2022/04/24 08:37:57;;;;;;;25.08;9.05;;;13.10;99.90;;;;;;4984529;28;20497;-60
2022/04/24 08:40:24;;;;;;;18.52;8.18;;;13.20;99.90;;;;;;4984277;28;20054;-58
2022/04/24 08:42:57;;;;;;;28.88;9.27;;;13.30;99.90;;;;;;4984412;28;20050;-60
2022/04/24 08:45:26;;;;;;;18.77;8.30;;;13.30;99.90;;;;;;4984931;28;20077;-58
2022/04/24 08:47:53;;;;;;;18.55;8.27;;;13.30;99.90;;;;;;4984822;28;20050;-59
2022/04/24 08:50:20;;;;;;;21.38;8.65;;;13.40;99.90;;;;;;4983431;28;20825;-60
2022/04/24 08:52:48;;;;;;;21.33;9.00;;;13.50;99.90;;;;;;4975497;28;20061;-59
2022/04/24 08:55:15;;;;;;;22.23;8.77;;;13.60;99.90;;;;;;4980866;28;20151;-58
2022/04/24 08:57:42;;;;;;;28.38;8.55;;;13.70;99.90;;;;;;4983165;28;20058;-59
2022/04/24 09:00:09;;;;;;;18.88;8.07;;;13.90;99.90;;;;;;4999181;28;20570;-61
2022/04/24 09:02:52;;;;;;;20.13;7.38;;;14.00;99.90;;;;;;4985227;28;20047;-59
2022/04/24 09:05:20;;;;;;;17.70;8.25;;;14.00;99.90;;;;;;4985068;28;20050;-58
2022/04/24 09:07:48;;;;;;;18.05;7.40;;;14.10;99.90;;;;;;4984129;28;20088;-59
2022/04/24 09:10:48;;;;;;;16.55;7.72;;;14.20;99.90;;;;;;4983852;28;20470;-59
2022/04/24 09:16:34;;;;;;;19.85;8.63;;;14.40;99.00;;;;;;4988579;28;20479;-58
2022/04/24 09:19:23;;;;;;;27.73;9.00;;;14.50;99.30;;;;;;4988554;28;20093;-60
2022/04/24 09:21:51;;;;;;;17.20;6.82;;;14.60;99.90;;;;;;4974073;28;20082;-59
2022/04/24 09:24:18;;;;;;;16.30;7.55;;;14.70;99.70;;;;;;4988377;28;20513;-59
2022/04/24 09:26:55;;;;;;;22.15;7.05;;;14.70;99.30;;;;;;4989158;28;20141;-60
2022/04/24 09:29:22;;;;;;;17.83;8.48;;;14.80;99.10;;;;;;4988226;28;20054;-60
2022/04/24 09:31:50;;;;;;;20.15;6.70;;;14.90;98.90;;;;;;4968087;28;20096;-59
2022/04/24 09:34:18;;;;;;;20.88;7.70;;;15.00;98.70;;;;;;4979872;28;20085;-58
2022/04/24 09:36:46;;;;;;;16.80;6.82;;;15.10;98.90;;;;;;4987701;28;20061;-59
2022/04/24 09:39:13;;;;;;;18.67;7.25;;;15.10;98.60;;;;;;4983799;28;20082;-58
2022/04/24 09:41:40;;;;;;;19.75;6.53;;;15.40;97.90;;;;;;4982820;28;20052;-59
2022/04/24 09:44:14;;;;;;;17.90;6.90;;;15.70;97.80;;;;;;4987640;28;20054;-59
2022/04/24 09:46:42;;;;;;;16.02;7.10;;;16.10;97.50;;;;;;4971446;28;20157;-60
2022/04/24 09:49:09;;;;;;;20.27;6.15;;;16.50;97.70;;;;;;4987970;28;20081;-59
2022/04/24 09:51:40;;;;;;;14.80;5.65;;;16.80;96.90;;;;;;4977523;28;20051;-57
2022/04/24 09:54:07;;;;;;;14.50;5.82;;;17.00;96.30;;;;;;4974768;28;20505;-60
2022/04/24 09:56:34;;;;;;;20.10;7.18;;;17.10;95.20;;;;;;4986828;28;20093;-60
2022/04/24 09:59:01;;;;;;;14.93;6.50;;;17.20;96.00;;;;;;4987145;28;20054;-61
2022/04/24 10:01:29;;;;;;;12.40;5.43;;;17.40;95.70;;;;;;4988153;28;20086;-58
2022/04/24 10:03:57;;;;;;;15.07;6.15;;;17.30;94.60;;;;;;4987080;28;20077;-60
2022/04/24 10:06:24;;;;;;;16.65;6.35;;;17.40;95.00;;;;;;4982049;28;20057;-58
2022/04/24 10:08:51;;;;;;;14.80;5.35;;;17.40;94.70;;;;;;4987994;28;20204;-58
2022/04/24 10:11:18;;;;;;;11.73;6.03;;;17.60;94.80;;;;;;4987562;28;20081;-58
2022/04/24 10:13:45;;;;;;;16.23;5.85;;;17.80;94.60;;;;;;4987767;28;20120;-59
2022/04/24 10:16:21;;;;;;;8.82;5.80;;;17.90;94.00;;;;;;4986295;28;20521;-61
2022/04/24 10:19:18;;;;;;;21.30;6.70;;;18.00;92.80;;;;;;4988058;28;20054;-59
2022/04/24 10:22:04;;;;;;;10.60;6.05;;;18.00;93.10;;;;;;4970888;28;20547;-58
2022/04/24 10:24:39;;;;;;;7.65;5.40;;;18.10;91.00;;;;;;5002709;28;20173;-59
2022/04/24 10:27:07;;;;;;;15.20;6.45;;;18.20;91.70;;;;;;4986372;28;20165;-59
2022/04/24 10:29:34;;;;;;;13.65;5.32;;;18.10;93.60;;;;;;4987172;28;20159;-58
2022/04/24 10:32:02;;;;;;;17.58;6.00;;;17.90;92.90;;;;;;4988058;28;20158;-58
2022/04/24 10:34:38;;;;;;;14.95;6.30;;;17.70;92.20;;;;;;4987593;28;20042;-58
2022/04/24 10:37:06;;;;;;;14.07;5.97;;;17.60;92.00;;;;;;4988138;28;20134;-58
2022/04/24 10:39:33;;;;;;;18.55;7.00;;;17.50;93.70;;;;;;4988300;28;20415;-58
2022/04/24 10:42:09;;;;;;;15.23;5.70;;;17.40;93.20;;;;;;4986006;28;20501;-59
2022/04/24 10:44:37;;;;;;;7.97;5.53;;;17.40;91.20;;;;;;4988329;28;20085;-60
2022/04/24 10:47:11;;;;;;;10.20;5.50;;;17.40;93.20;;;;;;4987295;28;20519;-59
2022/04/24 10:49:38;;;;;;;14.88;6.38;;;17.30;91.40;;;;;;4968899;28;20109;-60
2022/04/24 10:52:05;;;;;;;12.05;5.47;;;17.20;92.80;;;;;;4983027;28;20126;-59
2022/04/24 10:54:39;;;;;;;14.95;5.70;;;17.30;92.70;;;;;;4987309;28;20188;-59
2022/04/24 10:57:21;;;;;;;13.40;5.85;;;17.20;91.00;;;;;;4987206;28;20082;-60
2022/04/24 10:59:48;;;;;;;13.93;5.25;;;17.10;90.60;;;;;;4987755;28;20054;-60
2022/04/24 11:02:20;;;;;;;11.50;5.53;;;17.20;91.90;;;;;;4987118;28;20088;-60
2022/04/24 11:04:47;;;;;;;11.27;5.30;;;17.20;91.90;;;;;;4987370;28;20548;-59
2022/04/24 11:07:21;;;;;;;10.35;5.00;;;17.20;90.80;;;;;;4984933;28;20145;-61
2022/04/24 11:09:48;;;;;;;12.37;5.00;;;17.20;89.60;;;;;;4990965;28;20402;-60
2022/04/24 11:12:14;;;;;;;12.40;5.72;;;17.20;90.70;;;;;;4990414;28;20502;-60
2022/04/24 11:14:42;;;;;;;11.63;4.88;;;17.30;90.80;;;;;;4990480;28;20042;-59
2022/04/24 11:17:09;;;;;;;12.90;5.20;;;17.40;90.60;;;;;;4990514;28;20057;-58
2022/04/24 11:19:38;;;;;;;11.05;4.75;;;17.50;89.50;;;;;;4985045;28;20044;-60
2022/04/24 11:22:10;;;;;;;13.55;4.75;;;17.50;90.30;;;;;;4976724;28;20128;-59
2022/04/24 11:24:38;;;;;;;10.48;4.85;;;17.60;87.20;;;;;;4974685;28;20049;-59
2022/04/24 11:27:12;;;;;;;8.32;4.60;;;17.70;90.00;;;;;;4985717;28;20510;-59
2022/04/24 11:29:42;;;;;;;12.50;5.35;;;17.70;85.80;;;;;;4985766;28;20042;-59
2022/04/24 11:32:09;;;;;;;12.60;6.05;;;17.50;88.90;;;;;;4988779;28;20104;-59
2022/04/24 11:34:36;;;;;;;6.47;4.00;;;17.30;87.70;;;;;;4989197;28;20043;-64
2022/04/24 11:37:04;;;;;;;9.45;4.38;;;17.20;88.90;;;;;;4987104;28;20046;-59
2022/04/24 11:39:31;;;;;;;6.47;4.28;;;17.20;87.70;;;;;;5004112;28;20752;-59
2022/04/24 11:41:58;;;;;;;10.82;4.88;;;17.20;88.80;;;;;;4988696;28;20133;-59
2022/04/24 11:50:15;;;;;;;9.23;4.10;;;17.70;88.10;;;;;;4987455;28;20077;-60
2022/04/24 11:53:02;;;;;;;9.60;6.18;;;17.90;86.40;;;;;;4988488;28;20073;-63
2022/04/24 11:56:01;;;;;;;14.85;4.68;;;17.90;87.30;;;;;;4978325;28;20141;-59
2022/04/24 11:58:16;;;;;;;7.40;4.28;;;18.00;86.20;;;;;;4974422;28;20050;-59
2022/04/24 12:00:43;;;;;;;9.63;4.28;;;18.00;87.30;;;;;;4988608;28;20414;-59
2022/04/24 12:03:10;;;;;;;7.90;4.20;;;18.00;84.90;;;;;;4987391;28;20077;-59
2022/04/24 12:05:37;;;;;;;12.48;4.88;;;17.90;85.30;;;;;;4988742;28;20053;-60
2022/04/24 12:08:05;;;;;;;7.43;4.65;;;17.90;80.60;;;;;;4987510;28;20077;-59
2022/04/24 12:10:32;;;;;;;12.80;4.45;;;17.90;78.50;;;;;;5002966;28;20460;-59
2022/04/24 12:13:05;;;;;;;11.27;4.40;;;17.90;85.90;;;;;;4988086;28;20046;-59
2022/04/24 12:15:32;;;;;;;10.23;4.35;;;18.20;80.00;;;;;;4987562;28;20560;-59
2022/04/24 12:17:59;;;;;;;8.75;4.80;;;18.20;80.60;;;;;;4985440;28;20091;-59
2022/04/24 12:20:37;;;;;;;10.30;4.70;;;18.20;84.50;;;;;;4984119;28;20077;-59
2022/04/24 12:23:17;;;;;;;11.00;4.75;;;18.20;80.40;;;;;;4975808;28;20050;-58
2022/04/24 12:25:48;;;;;;;11.93;4.85;;;18.10;80.40;;;;;;4986831;28;20093;-59
2022/04/24 12:28:40;;;;;;;9.27;4.78;;;18.30;81.70;;;;;;4988345;28;20129;-61
2022/04/24 12:31:18;;;;;;;7.88;4.28;;;18.30;80.90;;;;;;4978407;28;20085;-61
2022/04/24 12:33:46;;;;;;;12.75;4.40;;;18.20;84.30;;;;;;4983108;28;20054;-59
2022/04/24 12:36:14;;;;;;;9.70;4.55;;;18.00;84.10;;;;;;4986371;28;20568;-60
2022/04/24 12:38:41;;;;;;;7.47;4.07;;;18.00;82.80;;;;;;4987371;28;20393;-60
2022/04/24 12:41:10;;;;;;;6.88;4.55;;;18.00;78.10;;;;;;4985342;28;20539;-60
2022/04/24 12:43:37;;;;;;;7.90;4.15;;;18.10;79.60;;;;;;4640644;28;9999696;-60
2022/04/24 12:46:05;;;;;;;8.38;3.92;;;18.20;79.00;;;;;;4983819;28;20081;-60
2022/04/24 12:48:32;;;;;;;8.98;4.18;;;18.30;80.10;;;;;;4983387;28;20443;-60
2022/04/24 12:50:59;;;;;;;10.23;4.10;;;18.30;81.60;;;;;;4983059;28;20077;-60